Terminal Aerodrome Forecast
Issued by NWS

Home | Current Version | Previous Version | Graphics & Text | Print | Product List | Glossary Off
Versions: 1 2 3 4 5 6 7 8 9 10 11 12 13 14 15 16 17 18 19 20 21 22 23 24 25 26 27 28 29 30 31 32 33 34 35 36 37 38 39 40 41 42 43 44 45 46 47 48 49 50

599
FTUS43 KDDC 210938 AAB
TAFGCK
TAF AMD
KGCK 210938Z 2110/2206 36012G20KT 3SM BR OVC003
      TEMPO 2110/2113 1SM BR
     FM211300 02010KT 1/4SM FG OVC003
     FM211500 04011KT 1/2SM FG OVC003
     FM211800 05011KT 1 1/2SM -SN OVC003
     FM212200 01020G30KT 2SM -SN OVC008=

USA.gov is the U.S. government's official web portal to all federal, state and local government web resources and services.